createdAt,value
2018-05-14T00:00:39.434Z,94044.48
2018-05-14T00:03:43.494Z,94041.06
2018-05-14T00:06:46.751Z,94042.20
2018-05-14T00:09:50.769Z,94042.17
2018-05-14T00:12:54.261Z,94045.65
2018-05-14T00:15:58.291Z,94042.54
2018-05-14T00:19:01.537Z,94035.83
2018-05-14T00:22:04.789Z,94041.52
2018-05-14T00:25:08.073Z,94042.27
2018-05-14T00:28:12.195Z,94039.77
2018-05-14T00:31:15.461Z,94030.57
2018-05-14T00:34:18.714Z,94036.26
2018-05-14T00:37:21.966Z,94032.95
2018-05-14T00:40:25.993Z,94034.45
2018-05-14T00:43:30.030Z,94039.77
2018-05-14T00:46:33.315Z,94040.52
2018-05-14T00:49:37.075Z,94045.19
2018-05-14T00:52:40.346Z,94043.02
2018-05-14T00:55:44.365Z,94041.17
2018-05-14T00:58:47.631Z,94046.33
2018-05-14T01:01:51.659Z,94047.25
2018-05-14T01:04:54.952Z,94054.91
2018-05-14T01:07:58.230Z,94056.24
2018-05-14T01:11:02.257Z,94062.69
2018-05-14T01:14:05.515Z,94065.53
2018-05-14T01:17:08.774Z,94066.68
2018-05-14T01:20:12.022Z,94067.18
2018-05-14T01:23:15.357Z,94056.98
2018-05-14T01:26:18.626Z,94061.18
2018-05-14T01:29:22.649Z,94062.01
2018-05-14T01:32:26.707Z,94067.19
2018-05-14T01:35:30.117Z,94069.79
2018-05-14T01:38:33.382Z,94064.37
2018-05-14T01:41:36.649Z,94068.76
2018-05-14T01:44:39.916Z,94063.63
2018-05-14T01:47:43.175Z,94062.11
2018-05-14T01:50:48.221Z,94060.17
2018-05-14T01:53:51.509Z,94061.89
2018-05-14T01:56:54.774Z,94068.85
2018-05-14T01:59:58.790Z,94059.28
2018-05-14T02:03:02.843Z,94069.34
2018-05-14T02:06:06.102Z,94072.27
2018-05-14T02:09:09.362Z,94071.59
2018-05-14T02:12:12.634Z,94065.87
2018-05-14T02:15:15.885Z,94059.58
2018-05-14T02:18:19.147Z,94070.11
2018-05-14T02:21:23.187Z,94068.02
2018-05-14T02:24:26.444Z,94063.55
2018-05-14T02:27:29.703Z,94057.95
2018-05-14T02:30:33.804Z,94057.73
2018-05-14T02:33:37.246Z,94065.17
2018-05-14T02:36:40.507Z,94067.06
2018-05-14T02:39:43.763Z,94062.89
2018-05-14T02:42:47.081Z,94061.80
2018-05-14T02:45:50.377Z,94056.59
2018-05-14T02:48:53.634Z,94054.98
2018-05-14T02:51:56.926Z,94056.30
2018-05-14T02:55:00.195Z,94049.44
2018-05-14T02:58:04.287Z,94052.23
2018-05-14T03:01:07.561Z,94054.70
2018-05-14T03:04:10.830Z,94064.84
2018-05-14T03:07:14.098Z,94054.31
2018-05-14T03:10:17.415Z,94059.28
2018-05-14T03:13:21.477Z,94058.17
2018-05-14T03:16:24.770Z,94062.17
2018-05-14T03:19:28.153Z,94061.05
2018-05-14T03:22:31.433Z,94065.27
2018-05-14T03:25:34.722Z,94077.18
2018-05-14T03:28:38.847Z,94074.94
2018-05-14T03:31:42.882Z,94070.20
2018-05-14T03:34:46.145Z,94070.05
2018-05-14T03:37:49.419Z,94072.36
2018-05-14T03:40:52.674Z,94066.79
2018-05-14T03:43:56.799Z,94075.98
2018-05-14T03:47:00.078Z,94086.08
2018-05-14T03:50:04.122Z,94090.11
2018-05-14T03:53:07.402Z,94088.05
2018-05-14T03:56:11.426Z,94094.14
2018-05-14T03:59:32.458Z,94090.41
2018-05-14T04:02:53.498Z,94093.70
2018-05-14T04:06:14.495Z,94089.85
2018-05-14T04:09:17.782Z,94089.31
2018-05-14T04:12:21.071Z,94096.92
2018-05-14T04:15:25.094Z,94095.01
2018-05-14T04:18:29.132Z,94095.26
2018-05-14T04:21:32.456Z,94096.41
2018-05-14T04:24:35.725Z,94093.42
2018-05-14T04:27:39.006Z,94094.77
2018-05-14T04:30:43.037Z,94097.09
2018-05-14T04:33:46.303Z,94101.33
2018-05-14T04:36:50.354Z,94092.69
2018-05-14T04:39:53.683Z,94100.30
2018-05-14T04:42:56.958Z,94099.67
2018-05-14T04:46:00.255Z,94102.25
2018-05-14T04:49:04.316Z,94107.83
2018-05-14T04:52:07.808Z,94110.18
2018-05-14T04:55:11.221Z,94108.03
2018-05-14T04:58:14.541Z,94111.14
2018-05-14T05:01:17.942Z,94108.66
2018-05-14T05:04:21.605Z,94114.48
2018-05-14T05:07:25.651Z,94117.20
2018-05-14T05:10:29.013Z,94124.36
2018-05-14T05:13:32.238Z,94126.14
2018-05-14T05:16:35.531Z,94128.15
2018-05-14T05:19:39.566Z,94122.47
2018-05-14T05:22:42.954Z,94132.27
2018-05-14T05:25:46.145Z,94132.25
2018-05-14T05:28:49.427Z,94127.59
2018-05-14T05:31:52.702Z,94128.92
2018-05-14T05:34:56.738Z,94131.80
2018-05-14T05:38:00.062Z,94130.05
2018-05-14T05:41:04.069Z,94123.77
2018-05-14T05:44:07.387Z,94128.75
2018-05-14T05:47:10.658Z,94132.75
2018-05-14T05:50:14.701Z,94131.86
2018-05-14T05:53:17.966Z,94135.54
2018-05-14T05:56:21.227Z,94140.64
2018-05-14T05:59:24.491Z,94136.05
2018-05-14T06:02:27.827Z,94137.64
2018-05-14T06:05:31.918Z,94139.95
2018-05-14T06:08:35.210Z,94135.20
2018-05-14T06:11:38.526Z,94132.94
2018-05-14T06:14:41.791Z,94138.99
2018-05-14T06:17:45.815Z,94135.73
2018-05-14T06:20:49.857Z,94132.93
2018-05-14T06:23:53.251Z,94144.58
2018-05-14T06:26:56.568Z,94146.50
2018-05-14T06:29:59.836Z,94150.30
2018-05-14T06:33:03.097Z,94149.44
2018-05-14T06:36:07.130Z,94147.36
2018-05-14T06:39:10.402Z,94146.59
2018-05-14T06:42:15.162Z,94153.45
2018-05-14T06:45:18.423Z,94144.88
2018-05-14T06:48:21.705Z,94135.89
2018-05-14T06:51:24.992Z,94134.38
2018-05-14T06:54:29.943Z,94134.38
2018-05-14T06:57:33.198Z,94129.22
2018-05-14T07:00:37.990Z,94130.83
2018-05-14T07:03:41.267Z,94133.02
2018-05-14T07:06:45.298Z,94119.09
2018-05-14T07:09:48.573Z,94125.61
2018-05-14T07:12:52.618Z,94124.83
2018-05-14T07:15:55.888Z,94123.20
2018-05-14T07:19:00.538Z,94118.52
2018-05-14T07:22:04.661Z,94120.08
2018-05-14T07:25:08.682Z,94123.27
2018-05-14T07:28:12.733Z,94114.39
2018-05-14T07:31:16.137Z,94120.20
2018-05-14T07:34:19.437Z,94112.00
2018-05-14T07:37:22.774Z,94123.30
2018-05-14T07:40:26.118Z,94125.86
2018-05-14T07:43:31.100Z,94122.36
2018-05-14T07:46:34.390Z,94116.81
2018-05-14T07:49:37.720Z,94119.74
2018-05-14T07:52:41.846Z,94128.38
2018-05-14T07:55:45.097Z,94128.23
2018-05-14T07:58:48.357Z,94127.52
2018-05-14T08:01:51.627Z,94126.09
2018-05-14T08:04:55.755Z,94132.84
2018-05-14T08:07:59.778Z,94137.42
2018-05-14T08:11:03.810Z,94135.10
2018-05-14T08:14:07.957Z,94139.17
2018-05-14T08:17:11.226Z,94144.80
2018-05-14T08:20:14.954Z,94139.66
2018-05-14T08:23:18.987Z,94141.05
2018-05-14T08:26:22.263Z,94140.95
2018-05-14T08:29:25.591Z,94134.13
2018-05-14T08:32:28.889Z,94130.38
2018-05-14T08:35:33.073Z,94132.64
2018-05-14T08:38:36.338Z,94133.91
2018-05-14T08:41:40.585Z,94133.13
2018-05-14T08:44:43.856Z,94141.35
2018-05-14T08:47:48.087Z,94140.14
2018-05-14T08:50:51.381Z,94138.11
2018-05-14T08:53:55.410Z,94137.01
2018-05-14T08:56:59.446Z,94138.05
2018-05-14T09:00:02.728Z,94136.41
2018-05-14T09:03:05.981Z,94135.75
2018-05-14T09:06:09.245Z,94136.78
2018-05-14T09:09:13.324Z,94130.39
2018-05-14T09:12:16.630Z,94130.34
2018-05-14T09:15:19.897Z,94121.00
2018-05-14T09:18:23.203Z,94131.25
2018-05-14T09:21:26.413Z,94136.79
2018-05-14T09:24:29.691Z,94125.66
2018-05-14T09:27:33.763Z,94130.09
2018-05-14T09:30:37.025Z,94139.84
2018-05-14T09:33:40.329Z,94133.50
2018-05-14T09:36:43.602Z,94137.48
2018-05-14T09:39:46.880Z,94133.16
2018-05-14T09:42:50.131Z,94141.57
2018-05-14T09:45:54.260Z,94132.81
2018-05-14T09:48:57.553Z,94135.59
2018-05-14T09:52:00.879Z,94143.80
2018-05-14T09:55:04.179Z,94146.24
2018-05-14T09:58:07.474Z,94143.26
2018-05-14T10:01:10.742Z,94150.77
2018-05-14T10:04:14.008Z,94152.68
2018-05-14T10:07:17.268Z,94147.07
2018-05-14T10:10:21.395Z,94146.63
2018-05-14T10:13:24.682Z,94149.41
2018-05-14T10:16:28.882Z,94148.53
2018-05-14T10:19:32.296Z,94143.56
2018-05-14T10:22:36.474Z,94145.47
2018-05-14T10:25:40.529Z,94142.98
2018-05-14T10:28:43.798Z,94145.77
2018-05-14T10:31:47.868Z,94148.53
2018-05-14T10:34:51.322Z,94145.27
2018-05-14T10:37:54.725Z,94141.28
2018-05-14T10:40:59.057Z,94138.08
2018-05-14T10:44:02.312Z,94137.51
2018-05-14T10:47:05.694Z,94131.44
2018-05-14T10:50:08.957Z,94126.86
2018-05-14T10:53:12.978Z,94126.14
2018-05-14T10:56:16.382Z,94127.45
2018-05-14T10:59:19.736Z,94127.86
2018-05-14T11:02:23.831Z,94130.47
2018-05-14T11:05:27.179Z,94124.90
2018-05-14T11:08:30.485Z,94123.34
2018-05-14T11:11:34.539Z,94126.58
2018-05-14T11:14:38.033Z,94125.34
2018-05-14T11:17:41.312Z,94120.51
2018-05-14T11:20:45.431Z,94120.90
2018-05-14T11:23:49.461Z,94121.91
2018-05-14T11:26:53.582Z,94127.43
2018-05-14T11:29:57.716Z,94118.59
2018-05-14T11:33:00.982Z,94117.42
2018-05-14T11:36:04.282Z,94109.04
2018-05-14T11:39:07.582Z,94110.19
2018-05-14T11:42:10.890Z,94115.53
2018-05-14T11:45:15.041Z,94105.78
2018-05-14T11:48:19.152Z,94107.75
2018-05-14T11:51:22.536Z,94104.77
2018-05-14T11:54:25.814Z,94099.50
2018-05-14T11:57:29.081Z,94105.13
2018-05-14T12:00:32.346Z,94109.54
2018-05-14T12:03:35.606Z,94109.25
2018-05-14T12:06:38.868Z,94112.45
2018-05-14T12:09:43.057Z,94107.42
2018-05-14T12:12:46.473Z,94110.09
2018-05-14T12:15:49.742Z,94105.11
2018-05-14T12:18:53.008Z,94103.69
2018-05-14T12:21:56.334Z,94106.09
2018-05-14T12:24:59.636Z,94106.20
2018-05-14T12:28:02.913Z,94091.05
2018-05-14T12:31:06.956Z,94081.69
2018-05-14T12:34:10.309Z,94075.55
2018-05-14T12:37:14.446Z,94067.91
2018-05-14T12:40:18.553Z,94064.37
2018-05-14T12:43:22.025Z,94058.11
2018-05-14T12:46:26.613Z,94055.20
2018-05-14T12:49:30.678Z,94044.44
2018-05-14T12:52:33.965Z,94040.77
2018-05-14T12:55:37.494Z,94043.20
2018-05-14T12:58:40.768Z,94035.27
2018-05-14T13:01:44.070Z,94026.20
2018-05-14T13:04:47.404Z,94020.44
2018-05-14T13:07:50.735Z,94013.59
2018-05-14T13:10:54.288Z,94015.46
2018-05-14T13:13:57.648Z,94011.72
2018-05-14T13:17:00.983Z,94012.41
2018-05-14T13:20:04.297Z,94016.45
2018-05-14T13:23:07.803Z,94008.08
2018-05-14T13:26:11.194Z,94012.44
2018-05-14T13:29:15.314Z,94000.20
2018-05-14T13:32:46.132Z,94016.22
2018-05-14T13:35:53.558Z,94017.52
2018-05-14T13:38:57.653Z,94014.86
2018-05-14T13:42:01.794Z,94019.63
2018-05-14T13:45:05.835Z,94017.52
2018-05-14T13:48:09.314Z,94021.61
2018-05-14T13:51:13.515Z,94011.17
2018-05-14T13:54:16.817Z,94015.72
2018-05-14T13:57:20.176Z,94014.05
2018-05-14T14:00:23.552Z,94012.22
2018-05-14T14:03:27.728Z,94009.22
2018-05-14T14:06:31.071Z,94000.58
2018-05-14T14:09:35.931Z,93994.02
2018-05-14T14:12:39.519Z,93992.08
2018-05-14T14:15:42.827Z,93996.91
2018-05-14T14:18:46.845Z,93997.27
2018-05-14T14:21:50.908Z,93992.52
2018-05-14T14:24:54.341Z,93982.24
2018-05-14T14:27:57.674Z,93981.50
2018-05-14T14:31:01.730Z,93973.42
2018-05-14T14:34:05.057Z,93974.84
2018-05-14T14:37:08.395Z,93968.33
2018-05-14T14:40:12.469Z,93960.88
2018-05-14T14:43:15.771Z,93936.25
2018-05-14T14:46:19.078Z,93935.25
2018-05-14T14:49:23.159Z,93927.02
2018-05-14T14:52:28.025Z,93935.48
2018-05-14T14:55:31.272Z,93942.23
2018-05-14T14:58:35.324Z,93941.05
2018-05-14T15:01:38.625Z,93939.03
2018-05-14T15:04:41.958Z,93937.94
2018-05-14T15:07:45.232Z,93947.55
2018-05-14T15:10:48.514Z,93957.20
2018-05-14T15:13:52.575Z,93952.77
2018-05-14T15:16:56.269Z,93966.57
2018-05-14T15:19:59.619Z,93980.66
2018-05-14T15:23:02.882Z,93988.95
2018-05-14T15:26:06.517Z,93983.61
2018-05-14T15:29:11.378Z,93978.05
2018-05-14T15:32:14.714Z,93970.77
2018-05-14T15:35:18.203Z,93980.88
2018-05-14T15:38:21.514Z,93980.61
2018-05-14T15:41:24.801Z,93980.55
2018-05-14T15:44:28.154Z,93983.19
2018-05-14T15:47:31.418Z,93984.73
2018-05-14T15:50:34.754Z,93983.53
2018-05-14T15:53:38.050Z,93985.57
2018-05-14T15:56:41.389Z,93991.43
2018-05-14T15:59:45.442Z,93993.16
2018-05-14T16:02:48.710Z,93995.98
2018-05-14T16:05:52.753Z,93994.31
2018-05-14T16:08:56.031Z,94005.58
2018-05-14T16:12:00.054Z,94004.85
2018-05-14T16:15:04.676Z,94000.83
2018-05-14T16:18:08.168Z,94006.59
2018-05-14T16:21:11.465Z,94007.34
2018-05-14T16:24:14.729Z,94007.33
2018-05-14T16:27:18.099Z,94001.41
2018-05-14T16:30:22.114Z,94005.84
2018-05-14T16:33:26.165Z,94008.88
2018-05-14T16:36:29.426Z,94011.20
2018-05-14T16:39:32.759Z,94012.54
2018-05-14T16:42:36.819Z,94016.38
2018-05-14T16:45:40.074Z,94019.70
2018-05-14T16:48:43.343Z,94019.55
2018-05-14T16:51:46.698Z,94017.02
2018-05-14T16:54:50.735Z,94027.89
2018-05-14T16:57:54.077Z,94023.66
2018-05-14T17:00:57.281Z,94028.81
2018-05-14T17:04:00.542Z,94022.14
2018-05-14T17:07:04.573Z,94018.11
2018-05-14T17:10:08.658Z,94022.52
2018-05-14T17:13:13.465Z,94023.33
2018-05-14T17:16:16.752Z,94026.06
2018-05-14T17:19:20.773Z,94027.98
2018-05-14T17:22:24.805Z,94031.59
2018-05-14T17:25:29.943Z,94032.81
2018-05-14T17:28:33.982Z,94042.97
2018-05-14T17:31:37.251Z,94054.48
2018-05-14T17:34:41.302Z,94053.17
2018-05-14T17:37:44.571Z,94053.38
2018-05-14T17:40:47.889Z,94057.39
2018-05-14T17:43:51.374Z,94062.75
2018-05-14T17:46:55.447Z,94068.55
2018-05-14T17:49:58.741Z,94068.00
2018-05-14T17:53:02.055Z,94063.98
2018-05-14T17:56:05.323Z,94066.62
2018-05-14T17:59:08.626Z,94066.09
2018-05-14T18:02:11.900Z,94073.20
2018-05-14T18:05:15.264Z,94071.67
2018-05-14T18:08:18.493Z,94074.55
2018-05-14T18:11:21.749Z,94077.83
2018-05-14T18:14:25.017Z,94072.50
2018-05-14T18:17:28.480Z,94082.34
2018-05-14T18:20:32.426Z,94089.61
2018-05-14T18:23:41.144Z,94089.02
2018-05-14T18:26:46.194Z,94087.33
2018-05-14T18:29:55.267Z,94084.45
2018-05-14T18:33:02.393Z,94086.79
2018-05-14T18:36:05.652Z,94089.27
2018-05-14T18:39:08.975Z,94090.03
2018-05-14T18:42:13.060Z,94096.93
2018-05-14T18:45:16.336Z,94098.64
2018-05-14T18:48:20.385Z,94105.72
2018-05-14T18:51:23.713Z,94104.58
2018-05-14T18:54:27.015Z,94119.88
2018-05-14T18:57:30.281Z,94121.78
2018-05-14T19:00:33.671Z,94126.55
2018-05-14T19:03:37.346Z,94132.48
2018-05-14T19:06:40.615Z,94141.30
2018-05-14T19:09:43.873Z,94145.69
2018-05-14T19:12:47.961Z,94152.95
2018-05-14T19:15:56.876Z,94142.23
2018-05-14T19:19:00.140Z,94158.12
2018-05-14T19:22:03.400Z,94159.06
2018-05-14T19:25:06.654Z,94156.61
2018-05-14T19:28:15.659Z,94160.61
2018-05-14T19:31:18.936Z,94157.16
2018-05-14T19:34:27.734Z,94157.38
2018-05-14T19:37:30.990Z,94161.20
2018-05-14T19:40:40.493Z,94158.89
2018-05-14T19:43:44.511Z,94157.55
2018-05-14T19:46:48.928Z,94159.83
2018-05-14T19:49:52.234Z,94155.02
2018-05-14T19:52:55.684Z,94154.66
2018-05-14T19:55:58.941Z,94158.86
2018-05-14T19:59:02.204Z,94169.56
2018-05-14T20:02:05.503Z,94167.23
2018-05-14T20:05:09.943Z,94173.57
2018-05-14T20:08:13.286Z,94172.42
2018-05-14T20:11:16.552Z,94179.88
2018-05-14T20:14:19.808Z,94179.50
2018-05-14T20:17:23.838Z,94182.12
2018-05-14T20:20:27.157Z,94193.23
2018-05-14T20:23:31.894Z,94188.47
2018-05-14T20:26:35.267Z,94183.88
2018-05-14T20:29:38.905Z,94185.92
2018-05-14T20:32:46.128Z,94181.14
2018-05-14T20:35:49.857Z,94184.80
2018-05-14T20:38:54.001Z,94183.84
2018-05-14T20:41:58.325Z,94190.05
2018-05-14T20:45:02.645Z,94186.05
2018-05-14T20:48:05.911Z,94185.10
2018-05-14T20:51:09.848Z,94184.13
2018-05-14T20:54:13.377Z,94186.65
2018-05-14T20:57:16.692Z,94189.11
2018-05-14T21:00:21.676Z,94193.89
2018-05-14T21:03:24.978Z,94197.70
2018-05-14T21:06:28.258Z,94200.77
2018-05-14T21:09:31.509Z,94193.69
2018-05-14T21:12:37.361Z,94197.14
2018-05-14T21:15:43.741Z,94197.48
2018-05-14T21:18:54.780Z,94194.95
2018-05-14T21:22:01.224Z,94189.63
2018-05-14T21:25:05.173Z,94190.22
2018-05-14T21:28:09.200Z,94206.98
2018-05-14T21:31:12.548Z,94202.47
2018-05-14T21:34:16.611Z,94208.20
2018-05-14T21:37:20.713Z,94203.24
2018-05-14T21:40:24.038Z,94205.45
2018-05-14T21:43:27.502Z,94202.06
2018-05-14T21:46:30.762Z,94208.92
2018-05-14T21:49:34.742Z,94208.39
2018-05-14T21:52:38.785Z,94214.44
2018-05-14T21:55:42.267Z,94217.76
2018-05-14T21:58:45.529Z,94219.56
2018-05-14T22:01:48.803Z,94217.13
2018-05-14T22:04:52.067Z,94224.19
2018-05-14T22:07:55.327Z,94221.32
2018-05-14T22:10:58.586Z,94225.86
2018-05-14T22:14:01.834Z,94227.75
2018-05-14T22:17:05.089Z,94226.36
2018-05-14T22:20:09.119Z,94225.39
2018-05-14T22:23:13.841Z,94223.87
2018-05-14T22:26:17.880Z,94224.17
2018-05-14T22:29:21.899Z,94215.95
2018-05-14T22:32:25.361Z,94212.71
2018-05-14T22:35:28.638Z,94220.12
2018-05-14T22:38:32.676Z,94218.47
2018-05-14T22:41:35.938Z,94216.00
2018-05-14T22:44:39.965Z,94215.30
2018-05-14T22:47:43.255Z,94216.41
2018-05-14T22:50:47.756Z,94220.78
2018-05-14T22:53:51.025Z,94220.59
2018-05-14T22:56:55.048Z,94220.97
2018-05-14T22:59:59.148Z,94209.76
2018-05-14T23:03:02.407Z,94215.55
2018-05-14T23:06:05.669Z,94219.95
2018-05-14T23:09:08.942Z,94220.66
2018-05-14T23:12:12.223Z,94215.70
2018-05-14T23:15:15.493Z,94223.71
2018-05-14T23:18:18.753Z,94217.31
2018-05-14T23:21:22.785Z,94216.67
2018-05-14T23:24:26.040Z,94219.47
2018-05-14T23:27:29.312Z,94218.88
2018-05-14T23:30:32.570Z,94213.26
2018-05-14T23:33:35.832Z,94215.20
2018-05-14T23:36:39.093Z,94215.74
2018-05-14T23:39:42.357Z,94210.05
2018-05-14T23:42:46.385Z,94212.34
2018-05-14T23:45:49.660Z,94215.95
2018-05-14T23:48:53.841Z,94210.92
2018-05-14T23:51:57.106Z,94212.17
2018-05-14T23:55:00.350Z,94212.14
2018-05-14T23:58:03.641Z,94210.06
